x

Ne St Martin - 330 Nm Ne St Martin Is (41044) Wave Buoy

7:50am - Sat 13th Feb 2016 All times are UTC.

  • Sig Wave height 7.9ft
  • Swell Direction
  • Peak Period 12s
  • Average Period 7s
  • Wind
    13mph, 16mph gusts
  • Sea Temp 78°f
  • Air Temp 77°f
  • Sea Pressure 1018.3mb

More Historic Weather Station data

Upgrade to MSW Pro to gain access to the past 30 days of data for over 8000 Wavebouys and Weather Stations around the globe.

Join Pro

Comparision Forecast

View Surf forecast
   
Sat 02/13 7:50am 8ft 12s 7s 13 16 mph 1018.3mb 78f 77f
6:50am 8ft 11s 8s 16 18 mph 1018.5mb 78f 77f
5:50am 8ft 12s 8s 16 20 mph 1019mb 78f 77f
4:50am 7ft 12s 7s 16 20 mph 1019.5mb 78f 77f
3:50am 7ft 11s 8s 13 18 mph 1020.1mb 78f 77f
2:50am 7ft 12s 7s 13 16 mph 1020.5mb 78f 77f
1:50am 7ft 13s 8s 16 20 mph 1020.8mb 78f 78f
12:50am 8ft 12s 8s 13 16 mph 1020.7mb 78f 77f
Fri 02/12 11:50pm 7ft 13s 8s 13 16 mph 1020.3mb 78f 77f
10:50pm 8.5ft 12s 8s 11 16 mph 1020.3mb 78f 77f
9:50pm 7ft 12s 8s 18 20 mph 1020.2mb 78f 77f
8:50pm 7ft 12s 8s 16 18 mph 1020mb 78f 78f
7:50pm 8ft 13s 8s 13 18 mph 1019.7mb 78f 78f
6:50pm 8ft 13s 8s 16 18 mph 1019.7mb 78f 78f
5:50pm 7ft 11s 7s 16 18 mph 1020.1mb 78f 78f
4:50pm 7.5ft 12s 7s 16 18 mph 1020.8mb 78f 78f
3:50pm 6.5ft 9s 7s 18 22 mph 1021.7mb 78f 78f
2:50pm 6.5ft 11s 7s 16 18 mph 1022.5mb 78f 78f
1:50pm 7ft 11s 8s 11 16 mph 1022.8mb 78f 78f
12:50pm 7ft 11s 7s 13 18 mph 1022.5mb 78f 78f
11:50am 7ft 11s 8s 9 11 mph 1022.1mb 78f 76f
10:50am 6.5ft 9s 7s 13 18 mph 1021.4mb 78f 77f
9:50am 6.5ft 9s 7s 13 18 mph 1020.9mb 78f 77f
8:50am 7ft 11s 7s 13 16 mph 1020.4mb 78f 77f
7:50am 6.5ft 11s 8s 13 16 mph 1020.4mb 78f 76f
6:50am 7ft 8s 8s 11 16 mph 1020.4mb 78f 77f
5:50am 7ft 9s 7s 11 13 mph 1020.7mb 78f 77f
4:50am 8ft 11s 8s 11 13 mph 1021.3mb 78f 77f
3:50am 7ft 9s 8s 11 13 mph 1021.6mb 78f 77f
2:50am 7ft 12s 8s 13 16 mph 1021.6mb 78f 77f
1:50am 8ft 8s 8s 11 13 mph 1021.4mb 78f 78f
12:50am 6.5ft 12s 8s 11 13 mph 1021.3mb 78f 78f
Thu 02/11 11:50pm 7ft 12s 8s 7 9 mph 1021.3mb 78f 77f
10:50pm 7.5ft 11s 8s 7 9 mph 1020.8mb 78f 77f
9:50pm 7ft 12s 8s 7 9 mph 1020.5mb 78f 77f
8:50pm 7ft 12s 8s 7 9 mph 1020.1mb 78f 78f
7:50pm 7ft 13s 7s 4 9 mph 1019.7mb 79f 76f
6:50pm 7ft 9s 7s 11 16 mph 1019.6mb 79f 78f
5:50pm 7ft 9s 7s 9 11 mph 1019.9mb 79f 78f
4:50pm 7.5ft 10s 7s 11 13 mph 1020.8mb 78f 78f
3:50pm 7ft 8s 7s 16 18 mph 1021.3mb 78f 77f
2:50pm 7ft 9s 7s 20 25 mph 1021.9mb 78f 78f
1:50pm 7ft 9s 7s 11 13 mph 1022.6mb 78f 79f
12:50pm 7ft 9s 6s 13 18 mph 1022.3mb 78f 78f
11:50am 7ft 8s 6s 18 22 mph 1021.7mb 78f 78f
10:50am 6.5ft 9s 7s 16 20 mph 1021.5mb 78f 77f
9:50am 7ft 8s 6s 25 31 mph 1020.7mb 78f 74f
8:50am 7ft 8s 7s 16 22 mph 1020.3mb 78f 77f
7:50am 7ft 9s 7s 13 18 mph 1020.3mb 78f 77f
6:50am 6.5ft 9s 6s 16 20 mph 1020.4mb 78f 77f
5:50am 7ft 9s 7s 16 20 mph 1020.8mb 78f 77f
4:50am 6.5ft 11s 7s 16 20 mph 1021.3mb 78f 77f
3:50am 7.5ft 9s 7s 16 18 mph 1021.8mb 78f 77f
2:50am 7ft 9s 7s 16 18 mph 1022.1mb 78f 77f
1:50am 7ft 11s 7s 18 20 mph 1022.2mb 78f 76f
12:50am 7.5ft 9s 7s 13 16 mph 1022.1mb 78f 76f
Wed 02/10 11:50pm 8ft 11s 7s 13 16 mph 1021.9mb 78f 77f
10:50pm 7.5ft 9s 7s 11 13 mph 1021.5mb 78f 76f
9:50pm 8ft 13s 7s 18 22 mph 1021.3mb 78f 73f
8:50pm 7.5ft 11s 7s 9 13 mph 1021.1mb 78f 76f
7:50pm 8ft 9s 7s 13 18 mph 1020.5mb 78f 77f
6:50pm 8.5ft 12s 7s 16 18 mph 1020.4mb 78f 76f
5:50pm 8.5ft 13s 8s 16 20 mph 1020.7mb 78f 78f
4:50pm 9.5ft 12s 8s 16 20 mph 1021.2mb 78f 78f
3:50pm 9ft 13s 8s 18 22 mph 1021.9mb 78f 78f
2:50pm 8.5ft 12s 7s 18 22 mph 1022.8mb 78f 78f
1:50pm 9ft 13s 8s 18 22 mph 1023.1mb 78f 78f
12:50pm 9ft 14s 8s 18 22 mph 1022.6mb 78f 78f
11:50am 8.5ft 13s 8s 16 18 mph 1022mb 78f 75f
10:50am 9ft 14s 8s 16 20 mph 1021.5mb 78f 74f
9:50am 9ft 14s 9s 13 16 mph 1021.1mb 78f 75f
8:50am 9ft 14s 8s 11 16 mph 1021.2mb 78f 75f
7:50am 9.5ft 14s 9s 18 20 mph 1021.3mb 78f 76f
6:50am 9.5ft 14s 9s 13 16 mph 1021.4mb 78f 75f
5:50am 10ft 15s 9s 18 20 mph 1021.7mb 78f 74f
4:50am 10.5ft 15s 9s 18 20 mph 1022.3mb 78f 76f
3:50am 11ft 15s 9s 18 22 mph 1022.5mb 78f 76f
2:50am 9.5ft 14s 9s 16 20 mph 1022.7mb 78f 76f
1:50am 10ft 16s 9s 13 16 mph 1022.9mb 78f 78f
12:50am 11ft 16s 10s 13 18 mph 1022.7mb 78f 77f
Tue 02/09 11:50pm 11ft 16s 10s 9 13 mph 1022.5mb 78f 78f
10:50pm 9ft 16s 9s 11 13 mph 1022.1mb 78f 78f
8:50pm 9ft 17s 8s 9 13 mph 1021.3mb 78f 78f
7:50pm 8.5ft 17s 8s 11 13 mph 1020.8mb 78f 78f
6:50pm 7.5ft 19s 7s 13 16 mph 1020.7mb 78f 78f
5:50pm 7ft 17s 7s 16 18 mph 1020.9mb 78f 78f
4:50pm 7ft 19s 7s 16 20 mph 1021.4mb 78f 78f
3:50pm 6.5ft 8s 7s 16 18 mph 1021.8mb 78f 78f
2:50pm 7ft 9s 7s 16 18 mph 1022.4mb 78f 78f
1:50pm 6.5ft 9s 7s 16 18 mph 1022.2mb 78f 77f
12:50pm 7ft 9s 6s 20 27 mph 1021.7mb 78f 75f
11:50am 7ft 9s 7s 16 18 mph 1021.2mb 78f 78f
10:50am 7ft 9s 7s 13 18 mph 1020.4mb 78f 77f
9:50am 6.5ft 19s 7s 20 25 mph 1019.6mb 78f 76f